QTR706 KJFK-OTHH
Flight info
| Callsign | QTR706 |
|---|---|
| Flight time | N/A |
| Altitude | 35000 |
| Route | SHIPP Y487 ISLES DCT JENYY DCT DOVEY/M085F350 DCT 42N060W 44N050W 44N040W/M085F370 44N030W 4330N02000W DCT ARMED/N0490F370 DCT BARDI/N0486F390 DCT RIDAV DCT DIPOL DCT NVS DCT NANDO DCT MINGU DCT ABOSI DCT MABUX DCT RETBA DCT MOPIR DCT LASPO DCT LUXUR UM134 ANB UA411 MORJA DCT SONAK DCT DINUX DCT ARLOS DCT SALUN N705 MMA/N0484F410 P751 DASUM Y234 FYM M872 WEJ L604 KFA M691 LADNA N318 HAYYA |
| Aircraft | A359/H-SDE2E3GHIJ1J3J4J5LM1ORWXY/LB1D1 |
Departure
| Time | N/A |
|---|---|
| Airport | John F. Kennedy International Airport (KJFK) |
Arrival
| Time | 2026-05-06 22:18 |
|---|---|
| Airport | Hamad International Airport (OTHH) |
| Time | Latitude | Longitude | Altitude | Speed | Heading |
|---|---|---|---|---|---|
| 2026-05-06 20:25 | 26.55790 | 35.50694 | 40916 ft | 530 kts | 118° |
| 2026-05-06 20:26 | 26.52910 | 35.58275 | 40919 ft | 530 kts | 120° |
| 2026-05-06 20:26 | 26.50000 | 35.65836 | 40914 ft | 530 kts | 120° |
| 2026-05-06 20:27 | 26.47088 | 35.73410 | 40913 ft | 530 kts | 120° |
| 2026-05-06 20:27 | 26.44186 | 35.80973 | 40912 ft | 531 kts | 120° |
| 2026-05-06 20:28 | 26.41270 | 35.88561 | 40914 ft | 532 kts | 120° |
| 2026-05-06 20:28 | 26.38349 | 35.96152 | 40908 ft | 533 kts | 120° |
| 2026-05-06 20:29 | 26.35423 | 36.03742 | 40911 ft | 532 kts | 120° |
| 2026-05-06 20:29 | 26.32493 | 36.11328 | 40906 ft | 532 kts | 120° |
| 2026-05-06 20:30 | 26.28092 | 36.22693 | 40909 ft | 532 kts | 120° |
| 2026-05-06 20:31 | 26.25152 | 36.30267 | 40909 ft | 533 kts | 120° |
| 2026-05-06 20:31 | 26.22227 | 36.37789 | 40911 ft | 533 kts | 120° |
| 2026-05-06 20:32 | 26.19434 | 36.45510 | 40912 ft | 540 kts | 112° |
| 2026-05-06 20:32 | 26.18651 | 36.49622 | 40911 ft | 548 kts | 101° |
| 2026-05-06 20:32 | 26.18513 | 36.53822 | 40915 ft | 554 kts | 90° |
| 2026-05-06 20:33 | 26.19167 | 36.62405 | 40898 ft | 558 kts | 86° |
| 2026-05-06 20:33 | 26.20093 | 36.70997 | 40906 ft | 559 kts | 86° |
| 2026-05-06 20:34 | 26.21013 | 36.79592 | 40902 ft | 559 kts | 86° |
| 2026-05-06 20:34 | 26.21884 | 36.88196 | 40906 ft | 560 kts | 87° |
| 2026-05-06 20:35 | 26.22731 | 36.96822 | 40914 ft | 560 kts | 87° |
| 2026-05-06 20:35 | 26.23571 | 37.05450 | 40918 ft | 560 kts | 87° |
| 2026-05-06 20:36 | 26.24408 | 37.14080 | 40928 ft | 560 kts | 87° |
| 2026-05-06 20:36 | 26.25240 | 37.22717 | 40944 ft | 561 kts | 86° |
| 2026-05-06 20:37 | 26.26070 | 37.31355 | 40947 ft | 561 kts | 87° |
| 2026-05-06 20:37 | 26.26894 | 37.40000 | 40946 ft | 561 kts | 87° |
| 2026-05-06 20:38 | 26.27711 | 37.48635 | 40936 ft | 561 kts | 87° |
| 2026-05-06 20:38 | 26.28520 | 37.57244 | 40955 ft | 561 kts | 87° |
| 2026-05-06 20:39 | 26.29328 | 37.65883 | 40954 ft | 560 kts | 87° |
| 2026-05-06 20:39 | 26.29995 | 37.73072 | 40926 ft | 561 kts | 87° |
| 2026-05-06 20:40 | 26.30796 | 37.81714 | 40946 ft | 559 kts | 87° |
| 2026-05-06 20:40 | 26.31591 | 37.90342 | 40967 ft | 559 kts | 88° |
| 2026-05-06 20:41 | 26.32377 | 37.98963 | 40949 ft | 559 kts | 88° |
| 2026-05-06 20:41 | 26.33157 | 38.07582 | 40954 ft | 558 kts | 88° |
| 2026-05-06 20:42 | 26.33934 | 38.16190 | 40965 ft | 558 kts | 88° |
| 2026-05-06 20:42 | 26.34701 | 38.24784 | 40951 ft | 558 kts | 88° |
| 2026-05-06 20:43 | 26.35461 | 38.33338 | 40951 ft | 558 kts | 88° |
| 2026-05-06 20:43 | 26.36220 | 38.41948 | 40958 ft | 558 kts | 88° |
| 2026-05-06 20:44 | 26.36972 | 38.50552 | 40972 ft | 558 kts | 88° |
| 2026-05-06 20:44 | 26.37721 | 38.59176 | 40963 ft | 558 kts | 88° |
| 2026-05-06 20:45 | 26.38464 | 38.67780 | 40962 ft | 558 kts | 88° |
| 2026-05-06 20:45 | 26.39200 | 38.76377 | 40972 ft | 558 kts | 88° |
| 2026-05-06 20:46 | 26.39928 | 38.84937 | 40984 ft | 558 kts | 88° |
| 2026-05-06 20:46 | 26.40657 | 38.93575 | 40976 ft | 559 kts | 88° |
| 2026-05-06 20:47 | 26.41380 | 39.02207 | 40984 ft | 559 kts | 88° |
| 2026-05-06 20:47 | 26.42099 | 39.10845 | 40988 ft | 559 kts | 88° |
| 2026-05-06 20:48 | 26.42812 | 39.19486 | 40979 ft | 560 kts | 88° |
| 2026-05-06 20:48 | 26.43521 | 39.28136 | 40986 ft | 560 kts | 88° |
| 2026-05-06 20:49 | 26.44036 | 39.36779 | 40982 ft | 558 kts | 91° |
| 2026-05-06 20:49 | 26.44407 | 39.45422 | 40992 ft | 557 kts | 91° |
| 2026-05-06 20:50 | 26.44791 | 39.54007 | 40980 ft | 557 kts | 91° |
| 2026-05-06 20:50 | 26.45204 | 39.62643 | 40990 ft | 557 kts | 91° |
| 2026-05-06 20:51 | 26.45625 | 39.71274 | 41005 ft | 557 kts | 91° |
| 2026-05-06 20:51 | 26.46041 | 39.79901 | 40990 ft | 557 kts | 91° |
| 2026-05-06 20:52 | 26.46450 | 39.88525 | 41002 ft | 557 kts | 91° |
| 2026-05-06 20:52 | 26.46853 | 39.97164 | 41006 ft | 557 kts | 91° |
| 2026-05-06 20:53 | 26.47251 | 40.05796 | 40992 ft | 557 kts | 91° |
| 2026-05-06 20:53 | 26.47643 | 40.14434 | 41002 ft | 557 kts | 91° |
| 2026-05-06 20:54 | 26.48031 | 40.23060 | 41002 ft | 557 kts | 91° |
| 2026-05-06 20:54 | 26.48413 | 40.31690 | 41024 ft | 557 kts | 91° |
| 2026-05-06 20:55 | 26.48790 | 40.40321 | 40996 ft | 556 kts | 91° |
| 2026-05-06 20:55 | 26.49159 | 40.48892 | 40983 ft | 556 kts | 92° |
| 2026-05-06 20:56 | 26.49525 | 40.57522 | 40995 ft | 557 kts | 92° |
| 2026-05-06 20:56 | 26.49887 | 40.66177 | 40991 ft | 557 kts | 92° |
| 2026-05-06 20:57 | 26.50242 | 40.74811 | 40992 ft | 557 kts | 92° |
| 2026-05-06 20:57 | 26.50592 | 40.83455 | 40992 ft | 557 kts | 92° |
| 2026-05-06 20:58 | 26.50936 | 40.92092 | 40980 ft | 557 kts | 92° |
| 2026-05-06 20:58 | 26.51277 | 41.00759 | 40994 ft | 558 kts | 92° |
| 2026-05-06 20:59 | 26.51078 | 41.09366 | 40992 ft | 553 kts | 99° |
| 2026-05-06 20:59 | 26.50518 | 41.17919 | 40992 ft | 553 kts | 100° |
| 2026-05-06 21:00 | 26.49893 | 41.26484 | 40990 ft | 553 kts | 101° |
| 2026-05-06 21:00 | 26.49271 | 41.35004 | 40971 ft | 554 kts | 100° |
| 2026-05-06 21:01 | 26.48650 | 41.43584 | 40987 ft | 556 kts | 101° |
| 2026-05-06 21:01 | 26.48028 | 41.52187 | 40982 ft | 556 kts | 101° |
| 2026-05-06 21:02 | 26.47401 | 41.60796 | 40981 ft | 556 kts | 101° |
| 2026-05-06 21:02 | 26.46768 | 41.69402 | 40990 ft | 556 kts | 101° |
| 2026-05-06 21:03 | 26.46132 | 41.77986 | 40950 ft | 555 kts | 101° |
| 2026-05-06 21:03 | 26.45489 | 41.86573 | 40983 ft | 555 kts | 101° |
| 2026-05-06 21:04 | 26.44841 | 41.95154 | 40986 ft | 554 kts | 101° |
| 2026-05-06 21:04 | 26.44189 | 42.03726 | 40985 ft | 555 kts | 101° |
| 2026-05-06 21:05 | 26.43535 | 42.12252 | 40995 ft | 555 kts | 101° |
| 2026-05-06 21:05 | 26.42872 | 42.20836 | 40966 ft | 555 kts | 101° |
| 2026-05-06 21:06 | 26.42206 | 42.29412 | 40994 ft | 554 kts | 101° |
| 2026-05-06 21:06 | 26.41535 | 42.37965 | 40995 ft | 553 kts | 101° |
| 2026-05-06 21:07 | 26.40859 | 42.46510 | 40990 ft | 552 kts | 101° |
| 2026-05-06 21:07 | 26.40181 | 42.55026 | 40994 ft | 550 kts | 101° |
| 2026-05-06 21:08 | 26.39499 | 42.63519 | 40979 ft | 550 kts | 101° |
| 2026-05-06 21:08 | 26.38811 | 42.72020 | 40995 ft | 549 kts | 101° |
| 2026-05-06 21:09 | 26.38121 | 42.80488 | 40995 ft | 549 kts | 101° |
| 2026-05-06 21:09 | 26.37424 | 42.88978 | 40979 ft | 549 kts | 101° |
| 2026-05-06 21:10 | 26.36728 | 42.97391 | 40997 ft | 549 kts | 101° |
| 2026-05-06 21:10 | 26.36023 | 43.05869 | 40980 ft | 549 kts | 101° |
| 2026-05-06 21:11 | 26.35313 | 43.14347 | 40983 ft | 549 kts | 101° |
| 2026-05-06 21:11 | 26.34594 | 43.22835 | 40986 ft | 549 kts | 101° |
| 2026-05-06 21:12 | 26.33871 | 43.31323 | 40990 ft | 549 kts | 101° |
| 2026-05-06 21:12 | 26.33145 | 43.39794 | 40972 ft | 549 kts | 101° |
| 2026-05-06 21:13 | 26.32413 | 43.48270 | 40963 ft | 549 kts | 101° |
| 2026-05-06 21:13 | 26.31682 | 43.56691 | 40969 ft | 549 kts | 101° |
| 2026-05-06 21:14 | 26.30941 | 43.65153 | 40963 ft | 549 kts | 101° |
| 2026-05-06 21:14 | 26.30196 | 43.73610 | 40966 ft | 548 kts | 101° |
| 2026-05-06 21:15 | 26.29854 | 43.82142 | 40967 ft | 553 kts | 95° |
| 2026-05-06 21:15 | 26.29887 | 43.90724 | 40966 ft | 554 kts | 95° |
| 2026-05-06 21:16 | 26.29976 | 43.99310 | 40970 ft | 554 kts | 94° |
| 2026-05-06 21:16 | 26.30056 | 44.07900 | 40956 ft | 554 kts | 95° |
| 2026-05-06 21:17 | 26.30120 | 44.16485 | 40952 ft | 554 kts | 95° |
| 2026-05-06 21:17 | 26.30173 | 44.25005 | 40941 ft | 554 kts | 95° |
| 2026-05-06 21:18 | 26.30221 | 44.33608 | 40953 ft | 554 kts | 95° |
| 2026-05-06 21:18 | 26.30265 | 44.42226 | 40935 ft | 554 kts | 95° |
| 2026-05-06 21:19 | 26.30304 | 44.50820 | 40951 ft | 555 kts | 95° |
| 2026-05-06 21:19 | 26.30343 | 44.59368 | 40950 ft | 555 kts | 95° |
| 2026-05-06 21:20 | 26.30371 | 44.67983 | 40949 ft | 555 kts | 95° |
| 2026-05-06 21:20 | 26.30393 | 44.76595 | 40953 ft | 556 kts | 95° |
| 2026-05-06 21:21 | 26.30412 | 44.85211 | 40956 ft | 556 kts | 95° |
| 2026-05-06 21:21 | 26.30429 | 44.93829 | 40955 ft | 556 kts | 95° |
| 2026-05-06 21:22 | 26.30437 | 45.02443 | 40953 ft | 556 kts | 95° |
| 2026-05-06 21:22 | 26.30436 | 45.11006 | 40958 ft | 556 kts | 95° |
| 2026-05-06 21:23 | 26.30432 | 45.19614 | 40957 ft | 555 kts | 95° |
| 2026-05-06 21:23 | 26.30423 | 45.28228 | 40963 ft | 555 kts | 95° |
| 2026-05-06 21:24 | 26.30413 | 45.36835 | 40962 ft | 555 kts | 95° |
| 2026-05-06 21:24 | 26.30392 | 45.45436 | 40963 ft | 555 kts | 95° |
| 2026-05-06 21:25 | 26.30367 | 45.54029 | 40965 ft | 555 kts | 95° |
| 2026-05-06 21:25 | 26.30338 | 45.62630 | 40964 ft | 554 kts | 95° |
| 2026-05-06 21:26 | 26.30304 | 45.71220 | 40967 ft | 554 kts | 95° |
| 2026-05-06 21:26 | 26.30266 | 45.79756 | 40964 ft | 554 kts | 95° |
| 2026-05-06 21:27 | 26.30222 | 45.88348 | 40967 ft | 554 kts | 95° |
| 2026-05-06 21:27 | 26.30172 | 45.96946 | 40970 ft | 554 kts | 95° |
| 2026-05-06 21:28 | 26.30118 | 46.05530 | 40948 ft | 554 kts | 95° |
| 2026-05-06 21:28 | 26.30069 | 46.12661 | 40966 ft | 553 kts | 95° |
| 2026-05-06 21:29 | 26.30006 | 46.21245 | 40970 ft | 553 kts | 95° |
| 2026-05-06 21:29 | 26.29938 | 46.29816 | 40968 ft | 553 kts | 95° |
| 2026-05-06 21:30 | 26.29869 | 46.38375 | 40974 ft | 553 kts | 95° |
| 2026-05-06 21:30 | 26.29790 | 46.46941 | 40969 ft | 553 kts | 95° |
| 2026-05-06 21:31 | 26.29709 | 46.55527 | 40969 ft | 553 kts | 95° |
| 2026-05-06 21:31 | 26.29618 | 46.64102 | 40959 ft | 553 kts | 95° |
| 2026-05-06 21:32 | 26.29520 | 46.72624 | 40963 ft | 553 kts | 95° |
| 2026-05-06 21:32 | 26.29367 | 46.85486 | 40966 ft | 553 kts | 95° |
| 2026-05-06 21:33 | 26.29259 | 46.94053 | 40966 ft | 553 kts | 95° |
| 2026-05-06 21:33 | 26.29147 | 47.02620 | 40969 ft | 553 kts | 95° |
| 2026-05-06 21:34 | 26.29029 | 47.11197 | 40969 ft | 553 kts | 95° |
| 2026-05-06 21:34 | 26.28906 | 47.19769 | 40970 ft | 553 kts | 96° |
| 2026-05-06 21:35 | 26.28772 | 47.28332 | 40963 ft | 552 kts | 96° |
| 2026-05-06 21:35 | 26.28613 | 47.36890 | 40961 ft | 552 kts | 96° |
| 2026-05-06 21:36 | 26.28448 | 47.45464 | 40957 ft | 551 kts | 96° |
| 2026-05-06 21:36 | 26.28284 | 47.53943 | 40955 ft | 551 kts | 96° |
| 2026-05-06 21:37 | 26.28115 | 47.62478 | 40951 ft | 551 kts | 96° |
| 2026-05-06 21:37 | 26.28444 | 47.71025 | 40950 ft | 558 kts | 82° |
| 2026-05-06 21:38 | 26.29987 | 47.79532 | 40944 ft | 560 kts | 80° |
| 2026-05-06 21:38 | 26.31737 | 47.88004 | 40936 ft | 561 kts | 79° |
| 2026-05-06 21:39 | 26.33501 | 47.96469 | 40931 ft | 560 kts | 79° |
| 2026-05-06 21:39 | 26.35233 | 48.04930 | 40928 ft | 559 kts | 80° |
| 2026-05-06 21:40 | 26.36939 | 48.13334 | 40924 ft | 559 kts | 80° |
| 2026-05-06 21:40 | 26.38642 | 48.21788 | 40908 ft | 559 kts | 80° |
| 2026-05-06 21:41 | 26.40342 | 48.30253 | 40907 ft | 558 kts | 80° |
| 2026-05-06 21:41 | 26.42036 | 48.38697 | 40907 ft | 558 kts | 80° |
| 2026-05-06 21:42 | 26.43726 | 48.47153 | 40894 ft | 558 kts | 80° |
| 2026-05-06 21:42 | 26.45411 | 48.55608 | 40890 ft | 559 kts | 80° |
| 2026-05-06 21:43 | 26.47063 | 48.64029 | 40874 ft | 558 kts | 82° |
| 2026-05-06 21:43 | 26.47717 | 48.72590 | 40885 ft | 553 kts | 91° |
| 2026-05-06 21:44 | 26.47853 | 48.81147 | 40877 ft | 548 kts | 98° |
| 2026-05-06 21:44 | 26.46867 | 48.89532 | 40873 ft | 543 kts | 104° |
| 2026-05-06 21:45 | 26.45650 | 48.97864 | 40857 ft | 543 kts | 105° |
| 2026-05-06 21:45 | 26.44415 | 49.06169 | 40867 ft | 542 kts | 105° |
| 2026-05-06 21:46 | 26.43173 | 49.14458 | 40861 ft | 541 kts | 105° |
| 2026-05-06 21:46 | 26.41927 | 49.22737 | 40861 ft | 541 kts | 105° |
| 2026-05-06 21:47 | 26.40676 | 49.31008 | 40859 ft | 541 kts | 105° |
| 2026-05-06 21:47 | 26.39429 | 49.39219 | 40843 ft | 541 kts | 105° |
| 2026-05-06 21:48 | 26.38168 | 49.47493 | 40852 ft | 540 kts | 105° |
| 2026-05-06 21:48 | 26.36907 | 49.55739 | 40837 ft | 539 kts | 105° |
| 2026-05-06 21:49 | 26.35646 | 49.63947 | 40835 ft | 539 kts | 105° |
| 2026-05-06 21:49 | 26.34375 | 49.72185 | 40829 ft | 539 kts | 105° |
| 2026-05-06 21:50 | 26.33104 | 49.80390 | 40829 ft | 539 kts | 105° |
| 2026-05-06 21:50 | 26.32066 | 49.87073 | 40828 ft | 539 kts | 105° |
| 2026-05-06 21:51 | 26.30781 | 49.95310 | 40824 ft | 539 kts | 105° |
| 2026-05-06 21:51 | 26.29492 | 50.03545 | 40825 ft | 539 kts | 105° |
| 2026-05-06 21:52 | 26.28201 | 50.11765 | 40833 ft | 539 kts | 105° |
| 2026-05-06 21:52 | 26.26914 | 50.19945 | 40829 ft | 539 kts | 105° |
| 2026-05-06 21:53 | 26.25613 | 50.28175 | 40830 ft | 539 kts | 105° |
| 2026-05-06 21:53 | 26.24308 | 50.36392 | 40830 ft | 538 kts | 105° |
| 2026-05-06 21:54 | 26.22998 | 50.44597 | 40832 ft | 538 kts | 104° |
| 2026-05-06 21:54 | 26.21685 | 50.52802 | 40837 ft | 537 kts | 104° |
| 2026-05-06 21:55 | 26.20368 | 50.60995 | 40837 ft | 537 kts | 105° |
| 2026-05-06 21:55 | 26.19046 | 50.69183 | 40853 ft | 537 kts | 104° |
| 2026-05-06 21:56 | 26.17720 | 50.77369 | 40851 ft | 537 kts | 104° |
| 2026-05-06 21:56 | 26.16389 | 50.85560 | 40846 ft | 537 kts | 104° |
| 2026-05-06 21:57 | 26.15054 | 50.93739 | 40834 ft | 536 kts | 104° |
| 2026-05-06 21:57 | 26.13729 | 51.01834 | 40826 ft | 535 kts | 104° |
| 2026-05-06 21:58 | 26.12393 | 51.09958 | 40822 ft | 534 kts | 104° |
| 2026-05-06 21:58 | 26.11047 | 51.18117 | 40824 ft | 534 kts | 105° |
| 2026-05-06 21:59 | 26.09531 | 51.26194 | 40731 ft | 526 kts | 112° |
| 2026-05-06 21:59 | 26.08273 | 51.29923 | 40008 ft | 508 kts | 121° |
| 2026-05-06 21:59 | 26.06535 | 51.33306 | 38739 ft | 502 kts | 132° |
| 2026-05-06 22:00 | 26.04292 | 51.36253 | 37164 ft | 497 kts | 143° |
| 2026-05-06 22:00 | 26.01634 | 51.38679 | 35679 ft | 491 kts | 153° |
| 2026-05-06 22:00 | 25.98681 | 51.40539 | 34274 ft | 485 kts | 162° |
| 2026-05-06 22:00 | 25.95530 | 51.41791 | 32676 ft | 478 kts | 173° |
| 2026-05-06 22:01 | 25.92266 | 51.42157 | 31048 ft | 468 kts | 188° |
| 2026-05-06 22:01 | 25.89040 | 51.41811 | 29361 ft | 467 kts | 191° |
| 2026-05-06 22:01 | 25.85794 | 51.41361 | 27499 ft | 471 kts | 190° |
| 2026-05-06 22:01 | 25.82530 | 51.40953 | 25829 ft | 472 kts | 189° |
| 2026-05-06 22:02 | 25.79267 | 51.40585 | 24365 ft | 469 kts | 188° |
| 2026-05-06 22:02 | 25.76080 | 51.40249 | 22972 ft | 463 kts | 187° |
| 2026-05-06 22:02 | 25.72852 | 51.39920 | 21427 ft | 456 kts | 187° |
| 2026-05-06 22:02 | 25.69756 | 51.39611 | 20015 ft | 449 kts | 186° |
| 2026-05-06 22:03 | 25.66663 | 51.39306 | 18666 ft | 442 kts | 186° |
| 2026-05-06 22:03 | 25.63621 | 51.39008 | 17261 ft | 435 kts | 185° |
| 2026-05-06 22:03 | 25.60623 | 51.38716 | 15937 ft | 427 kts | 184° |
| 2026-05-06 22:03 | 25.57736 | 51.38435 | 15274 ft | 405 kts | 184° |
| 2026-05-06 22:04 | 25.55011 | 51.38170 | 14746 ft | 381 kts | 184° |
| 2026-05-06 22:04 | 25.52443 | 51.37921 | 14313 ft | 359 kts | 184° |
| 2026-05-06 22:04 | 25.50024 | 51.37687 | 13926 ft | 339 kts | 183° |
| 2026-05-06 22:04 | 25.47801 | 51.37529 | 13555 ft | 320 kts | 178° |
| 2026-05-06 22:05 | 25.45684 | 51.37941 | 13105 ft | 302 kts | 160° |
| 2026-05-06 22:05 | 25.43745 | 51.38749 | 12527 ft | 295 kts | 156° |
| 2026-05-06 22:05 | 25.41862 | 51.39599 | 11894 ft | 290 kts | 156° |
| 2026-05-06 22:05 | 25.40046 | 51.40417 | 11451 ft | 280 kts | 156° |
| 2026-05-06 22:06 | 25.38269 | 51.41213 | 11071 ft | 271 kts | 156° |
| 2026-05-06 22:06 | 25.36557 | 51.41979 | 10894 ft | 262 kts | 156° |
| 2026-05-06 22:06 | 25.34807 | 51.42760 | 10904 ft | 279 kts | 156° |
| 2026-05-06 22:06 | 25.32985 | 51.43567 | 10902 ft | 283 kts | 157° |
| 2026-05-06 22:07 | 25.31158 | 51.44375 | 10869 ft | 282 kts | 157° |
| 2026-05-06 22:07 | 25.29341 | 51.45183 | 10646 ft | 280 kts | 156° |
| 2026-05-06 22:07 | 25.27544 | 51.45973 | 10372 ft | 276 kts | 157° |
| 2026-05-06 22:07 | 25.25771 | 51.46752 | 10082 ft | 272 kts | 157° |
| 2026-05-06 22:08 | 25.24022 | 51.47529 | 9820 ft | 270 kts | 157° |
| 2026-05-06 22:08 | 25.22285 | 51.48312 | 9516 ft | 269 kts | 156° |
| 2026-05-06 22:08 | 25.20554 | 51.49091 | 9141 ft | 269 kts | 157° |
| 2026-05-06 22:08 | 25.18821 | 51.49867 | 8774 ft | 268 kts | 157° |
| 2026-05-06 22:09 | 25.17095 | 51.50646 | 8414 ft | 267 kts | 157° |
| 2026-05-06 22:09 | 25.15376 | 51.51426 | 8053 ft | 267 kts | 156° |
| 2026-05-06 22:09 | 25.13650 | 51.52198 | 7679 ft | 268 kts | 156° |
| 2026-05-06 22:09 | 25.11912 | 51.52962 | 7302 ft | 269 kts | 156° |
| 2026-05-06 22:10 | 25.10175 | 51.53723 | 6940 ft | 268 kts | 157° |
| 2026-05-06 22:10 | 25.08450 | 51.54486 | 6595 ft | 267 kts | 157° |
| 2026-05-06 22:10 | 25.06731 | 51.55248 | 6260 ft | 265 kts | 157° |
| 2026-05-06 22:10 | 25.05022 | 51.56011 | 5892 ft | 264 kts | 157° |
| 2026-05-06 22:11 | 25.03325 | 51.56770 | 5532 ft | 262 kts | 156° |
| 2026-05-06 22:11 | 25.01756 | 51.57711 | 5180 ft | 259 kts | 137° |
| 2026-05-06 22:11 | 25.00755 | 51.59283 | 4928 ft | 248 kts | 108° |
| 2026-05-06 22:11 | 25.00604 | 51.61120 | 4684 ft | 238 kts | 77° |
| 2026-05-06 22:12 | 25.01134 | 51.62814 | 4473 ft | 230 kts | 64° |
| 2026-05-06 22:12 | 25.01816 | 51.64373 | 4320 ft | 221 kts | 63° |
| 2026-05-06 22:12 | 25.02491 | 51.65852 | 4176 ft | 210 kts | 62° |
| 2026-05-06 22:12 | 25.03391 | 51.67028 | 4031 ft | 197 kts | 32° |
| 2026-05-06 22:13 | 25.04638 | 51.67570 | 3931 ft | 192 kts | 15° |
| 2026-05-06 22:13 | 25.05938 | 51.67909 | 3821 ft | 192 kts | 13° |
| 2026-05-06 22:13 | 25.07240 | 51.68193 | 3656 ft | 194 kts | 7° |
| 2026-05-06 22:13 | 25.08575 | 51.68011 | 3442 ft | 194 kts | 343° |
| 2026-05-06 22:14 | 25.09830 | 51.67474 | 3199 ft | 193 kts | 338° |
| 2026-05-06 22:14 | 25.11064 | 51.66920 | 2924 ft | 189 kts | 339° |
| 2026-05-06 22:14 | 25.12268 | 51.66396 | 2688 ft | 183 kts | 339° |
| 2026-05-06 22:14 | 25.13428 | 51.65886 | 2453 ft | 176 kts | 339° |
| 2026-05-06 22:15 | 25.14540 | 51.65395 | 2236 ft | 168 kts | 338° |
| 2026-05-06 22:15 | 25.15592 | 51.64930 | 2045 ft | 160 kts | 338° |
| 2026-05-06 22:15 | 25.16271 | 51.64630 | 1913 ft | 158 kts | 338° |
| 2026-05-06 22:15 | 25.17284 | 51.64183 | 1713 ft | 155 kts | 340° |
| 2026-05-06 22:16 | 25.18272 | 51.63748 | 1517 ft | 152 kts | 339° |
| 2026-05-06 22:16 | 25.19223 | 51.63328 | 1316 ft | 141 kts | 339° |
| 2026-05-06 22:16 | 25.20096 | 51.62942 | 1136 ft | 129 kts | 340° |
| 2026-05-06 22:16 | 25.20917 | 51.62581 | 981 ft | 126 kts | 339° |
| 2026-05-06 22:17 | 25.21730 | 51.62221 | 818 ft | 126 kts | 338° |
| 2026-05-06 22:17 | 25.22540 | 51.61855 | 673 ft | 127 kts | 338° |
| 2026-05-06 22:17 | 25.23375 | 51.61491 | 527 ft | 131 kts | 337° |
| 2026-05-06 22:17 | 25.24224 | 51.61118 | 358 ft | 131 kts | 338° |
| 2026-05-06 22:18 | 25.25063 | 51.60746 | 176 ft | 129 kts | 339° |
| 2026-05-06 22:18 | 25.25892 | 51.60384 | 42 ft | 126 kts | 339° |
| 2026-05-06 22:18 | 25.26593 | 51.60078 | 31 ft | 83 kts | 338° |
| 2026-05-06 22:18 | 25.26957 | 51.59918 | 31 ft | 29 kts | 338° |
| 2026-05-06 22:19 | 25.27108 | 51.59851 | 32 ft | 22 kts | 338° |
| 2026-05-06 22:19 | 25.27250 | 51.59824 | 32 ft | 20 kts | 0° |
| 2026-05-06 22:19 | 25.27369 | 51.59828 | 33 ft | 9 kts | 6° |
| 2026-05-06 22:19 | 25.27412 | 51.59859 | 34 ft | 5 kts | 72° |
| 2026-05-06 22:20 | 25.27403 | 51.59898 | 35 ft | 6 kts | 115° |
| 2026-05-06 22:20 | 25.27366 | 51.59936 | 35 ft | 9 kts | 148° |
| 2026-05-06 22:20 | 25.27302 | 51.59970 | 35 ft | 12 kts | 155° |
| 2026-05-06 22:20 | 25.27219 | 51.60007 | 35 ft | 12 kts | 161° |
| 2026-05-06 22:21 | 25.27135 | 51.60042 | 35 ft | 14 kts | 158° |
| 2026-05-06 22:21 | 25.27048 | 51.60082 | 34 ft | 9 kts | 148° |
| 2026-05-06 22:21 | 25.27033 | 51.60141 | 35 ft | 9 kts | 86° |
| 2026-05-06 22:21 | 25.27052 | 51.60197 | 36 ft | 9 kts | 68° |
| 2026-05-06 22:22 | 25.27082 | 51.60278 | 36 ft | 14 kts | 68° |
| 2026-05-06 22:22 | 25.27121 | 51.60386 | 36 ft | 16 kts | 68° |
| 2026-05-06 22:22 | 25.27166 | 51.60507 | 36 ft | 18 kts | 68° |
| 2026-05-06 22:22 | 25.27197 | 51.60597 | 36 ft | 8 kts | 78° |
| 2026-05-06 22:23 | 25.27170 | 51.60645 | 35 ft | 8 kts | 148° |
| 2026-05-06 22:23 | 25.27108 | 51.60673 | 36 ft | 11 kts | 159° |
| 2026-05-06 22:23 | 25.27070 | 51.60741 | 36 ft | 12 kts | 84° |
| 2026-05-06 22:23 | 25.27098 | 51.60833 | 36 ft | 14 kts | 68° |
| 2026-05-06 22:24 | 25.27115 | 51.60901 | 36 ft | 3 kts | 110° |
| 2026-05-06 22:24 | 25.27094 | 51.60920 | 36 ft | 6 kts | 143° |
| 2026-05-06 22:24 | 25.27052 | 51.60943 | 36 ft | 4 kts | 156° |
| 2026-05-06 22:24 | 25.27037 | 51.60950 | 36 ft | 3 kts | 157° |
| 2026-05-06 22:25 | 25.27030 | 51.60953 | 36 ft | 0 kts | 157° |
| 2026-05-06 22:25 | 25.27029 | 51.60953 | 36 ft | 0 kts | 157° |
| 2026-05-06 22:25 | 25.27029 | 51.60954 | 36 ft | 0 kts | 157° |